Time;durP1;ratioP1;P1;durP2;ratioP2;P2;SDS_P1;SDS_P2;PMS_P1;PMS_P2;Temp;Humidity;BMP_temperature;BMP_pressure;BME280_temperature;BME280_humidity;BME280_pressure;Samples;Min_cycle;Max_cycle;Signal;HPM_P1;HPM_P2
2021/05/06 00:02:29;;;;;;;12.03;6.83;;;;;;;;;;5092210;28;20644;-59
2021/05/06 00:32:30;;;;;;;9.23;7.97;;;;;;;;;;5068284;28;20196;-59
2021/05/06 00:34:56;;;;;;;16.48;9.30;;;;;;;;;;5068984;28;20360;-58
2021/05/06 00:37:22;;;;;;;12.00;8.63;;;;;;;;;;5079508;28;20230;-59
2021/05/06 00:39:57;;;;;;;15.25;8.82;;;;;;;;;;5091352;28;20765;-59
2021/05/06 00:42:58;;;;;;;10.02;8.05;;;;;;;;;;5091382;28;20628;-59
2021/05/06 01:01:44;;;;;;;10.35;8.43;;;;;;;;;;5090860;28;20536;-59
2021/05/06 01:09:32;;;;;;;12.98;7.93;;;;;;;;;;5090973;28;20257;-59
2021/05/06 01:12:02;;;;;;;13.90;8.35;;;;;;;;;;5091293;28;20203;-59
2021/05/06 01:14:28;;;;;;;11.05;8.20;;;;;;;;;;5090801;28;20157;-59
2021/05/06 01:16:54;;;;;;;9.52;8.52;;;;;;;;;;5090973;28;20182;-58
2021/05/06 01:19:20;;;;;;;10.43;8.47;;;;;;;;;;5090676;28;20173;-58
2021/05/06 01:21:47;;;;;;;10.40;9.23;;;;;;;;;;5090836;28;20431;-59
2021/05/06 01:24:13;;;;;;;13.10;8.52;;;;;;;;;;5091020;28;20610;-60
2021/05/06 01:27:30;;;;;;;11.85;9.10;;;;;;;;;;5090731;28;20200;-59
2021/05/06 01:29:30;;;;;;;12.35;9.25;;;;;;;;;;5086316;28;20188;-59
2021/05/06 01:34:36;;;;;;;11.25;9.68;;;;;;;;;;5090947;28;20169;-58
2021/05/06 01:37:10;;;;;;;10.77;9.18;;;;;;;;;;5090823;28;20258;-59
2021/05/06 01:42:12;;;;;;;9.55;8.65;;;;;;;;;;5090947;28;20172;-59
2021/05/06 01:44:54;;;;;;;14.18;9.65;;;;;;;;;;5092243;28;20185;-58
2021/05/06 01:47:43;;;;;;;11.13;9.55;;;;;;;;;;5112552;22;20278;-53
2021/05/06 01:58:13;;;;;;;18.65;12.40;;;;;;;;;;5054693;28;20224;-52
2021/05/06 02:00:43;;;;;;;12.90;11.23;;;;;;;;;;5054267;28;20213;-53
2021/05/06 02:03:09;;;;;;;11.93;10.60;;;;;;;;;;5054519;28;20178;-52
2021/05/06 02:05:35;;;;;;;12.67;11.33;;;;;;;;;;5054291;28;20174;-52
2021/05/06 02:08:02;;;;;;;13.27;11.67;;;;;;;;;;5054223;28;20555;-52
2021/05/06 02:10:29;;;;;;;17.30;11.48;;;;;;;;;;5054061;28;20417;-52
2021/05/06 02:12:55;;;;;;;16.73;11.50;;;;;;;;;;5054307;28;20178;-53
2021/05/06 02:15:28;;;;;;;15.63;11.55;;;;;;;;;;5053908;28;20162;-53
2021/05/06 02:17:56;;;;;;;13.57;11.13;;;;;;;;;;5054087;28;20187;-52
2021/05/06 02:20:22;;;;;;;17.77;12.43;;;;;;;;;;5053466;28;20174;-52
2021/05/06 02:22:50;;;;;;;14.65;11.45;;;;;;;;;;5053967;28;20171;-52
2021/05/06 02:25:16;;;;;;;12.73;11.40;;;;;;;;;;5054152;28;20175;-52
2021/05/06 02:27:42;;;;;;;19.13;11.77;;;;;;;;;;5053716;28;20689;-52
2021/05/06 02:30:08;;;;;;;14.63;11.40;;;;;;;;;;5053400;28;20409;-52
2021/05/06 02:32:35;;;;;;;12.63;10.88;;;;;;;;;;5053917;28;20398;-52
2021/05/06 02:35:01;;;;;;;12.63;10.90;;;;;;;;;;5053493;28;20178;-52
2021/05/06 02:37:27;;;;;;;13.97;10.00;;;;;;;;;;5053681;28;20280;-52
2021/05/06 02:39:53;;;;;;;13.57;12.18;;;;;;;;;;5053562;28;20412;-52
2021/05/06 02:42:19;;;;;;;12.65;10.65;;;;;;;;;;5053613;28;20209;-52
2021/05/06 02:44:45;;;;;;;12.32;11.13;;;;;;;;;;5053377;28;20179;-52
2021/05/06 02:47:11;;;;;;;12.00;10.90;;;;;;;;;;5053220;28;20207;-52
2021/05/06 02:49:43;;;;;;;15.00;11.43;;;;;;;;;;5053011;28;20734;-52
2021/05/06 02:54:45;;;;;;;11.18;9.95;;;;;;;;;;5053163;28;20175;-53
2021/05/06 02:57:22;;;;;;;10.80;9.70;;;;;;;;;;5053274;28;20164;-53
2021/05/06 03:02:46;;;;;;;9.10;8.30;;;;;;;;;;5053218;28;20189;-52
2021/05/06 03:05:13;;;;;;;10.48;9.35;;;;;;;;;;5053048;28;20183;-53
2021/05/06 03:07:41;;;;;;;13.20;8.02;;;;;;;;;;5052920;28;20705;-52
2021/05/06 03:21:26;;;;;;;9.32;7.57;;;;;;;;;;5053094;28;20676;-52
2021/05/06 03:23:52;;;;;;;11.10;6.80;;;;;;;;;;5052787;28;20179;-52
2021/05/06 03:26:18;;;;;;;6.90;6.30;;;;;;;;;;5052481;28;20186;-53
2021/05/06 03:28:50;;;;;;;7.97;7.27;;;;;;;;;;5052303;28;20653;-52
2021/05/06 03:42:04;;;;;;;10.85;9.18;;;;;;;;;;5052557;28;20544;-52
2021/05/06 04:17:10;;;;;;;13.35;9.40;;;;;;;;;;5051808;28;20524;-52
2021/05/06 04:25:33;;;;;;;11.33;10.23;;;;;;;;;;5051797;28;20175;-52
2021/05/06 04:28:11;;;;;;;14.88;10.00;;;;;;;;;;5051100;28;20670;-53
2021/05/06 04:30:40;;;;;;;13.60;10.00;;;;;;;;;;5050920;28;20177;-53
2021/05/06 04:35:53;;;;;;;13.05;9.82;;;;;;;;;;5051419;28;20553;-52
2021/05/06 04:38:22;;;;;;;13.15;10.75;;;;;;;;;;5051321;28;20210;-52
2021/05/06 04:54:59;;;;;;;9.85;8.35;;;;;;;;;;5051374;28;20181;-53
2021/05/06 05:05:21;;;;;;;9.25;7.78;;;;;;;;;;5051019;28;20194;-52
2021/05/06 05:07:50;;;;;;;12.83;8.47;;;;;;;;;;5050737;28;20682;-53
2021/05/06 05:23:43;;;;;;;7.28;6.55;;;;;;;;;;5050430;28;20251;-52
2021/05/06 05:26:11;;;;;;;7.25;6.55;;;;;;;;;;5050917;28;20266;-52
2021/05/06 05:28:37;;;;;;;10.02;7.45;;;;;;;;;;5050776;28;20202;-52
2021/05/06 05:31:04;;;;;;;8.30;7.10;;;;;;;;;;5050539;28;20189;-53
2021/05/06 05:33:34;;;;;;;10.55;6.60;;;;;;;;;;5050508;28;20198;-52
2021/05/06 05:36:18;;;;;;;9.25;8.35;;;;;;;;;;5050712;28;20175;-53
2021/05/06 05:39:10;;;;;;;10.13;8.93;;;;;;;;;;5050448;28;20575;-52
2021/05/06 05:44:46;;;;;;;10.27;8.40;;;;;;;;;;5050503;28;20198;-52
2021/05/06 05:55:02;;;;;;;14.93;10.50;;;;;;;;;;5050524;28;20893;-54
2021/05/06 05:57:27;;;;;;;12.10;9.43;;;;;;;;;;5050441;28;20269;-53
2021/05/06 05:59:54;;;;;;;11.13;10.00;;;;;;;;;;5049967;28;20793;-52
2021/05/06 06:02:20;;;;;;;11.75;10.18;;;;;;;;;;5050269;28;20916;-52
2021/05/06 06:04:46;;;;;;;24.40;11.10;;;;;;;;;;5050307;28;20186;-53
2021/05/06 06:07:12;;;;;;;13.17;10.80;;;;;;;;;;5050161;28;21018;-53
2021/05/06 06:09:38;;;;;;;12.93;10.60;;;;;;;;;;5049742;28;20493;-52
2021/05/06 06:12:04;;;;;;;18.80;12.67;;;;;;;;;;5050338;28;20771;-52
2021/05/06 06:14:54;;;;;;;14.27;11.63;;;;;;;;;;5050095;28;20416;-53
2021/05/06 06:17:20;;;;;;;14.23;11.60;;;;;;;;;;5050135;28;20576;-52
2021/05/06 06:19:49;;;;;;;16.13;12.90;;;;;;;;;;5049858;28;20560;-53
2021/05/06 06:22:18;;;;;;;14.38;11.73;;;;;;;;;;5050403;28;20183;-52
2021/05/06 06:24:44;;;;;;;13.43;11.77;;;;;;;;;;5050386;28;20179;-52
2021/05/06 06:27:11;;;;;;;19.13;13.60;;;;;;;;;;5050110;28;20244;-53
2021/05/06 06:29:37;;;;;;;15.02;12.57;;;;;;;;;;5049733;28;20390;-52
2021/05/06 06:32:06;;;;;;;16.95;13.15;;;;;;;;;;5053795;28;20518;-54
2021/05/06 06:34:32;;;;;;;14.73;13.20;;;;;;;;;;5053509;28;20194;-53
2021/05/06 06:36:58;;;;;;;16.40;13.93;;;;;;;;;;5053629;28;20640;-52
2021/05/06 06:39:27;;;;;;;17.70;14.13;;;;;;;;;;5053191;28;20405;-52
2021/05/06 06:41:53;;;;;;;18.75;13.63;;;;;;;;;;5053959;28;20538;-52
2021/05/06 06:44:22;;;;;;;17.70;13.70;;;;;;;;;;5053970;28;20246;-52
2021/05/06 06:47:00;;;;;;;16.73;14.25;;;;;;;;;;5053434;28;20452;-53
2021/05/06 06:49:26;;;;;;;16.33;14.07;;;;;;;;;;5052970;28;20186;-53
2021/05/06 06:51:52;;;;;;;16.20;14.00;;;;;;;;;;5053385;28;20397;-53
2021/05/06 06:54:18;;;;;;;14.43;12.90;;;;;;;;;;5053288;28;20396;-52
2021/05/06 06:56:44;;;;;;;16.30;14.60;;;;;;;;;;5053315;28;20428;-52
2021/05/06 06:59:10;;;;;;;17.53;14.43;;;;;;;;;;5053024;28;20415;-52
2021/05/06 07:01:38;;;;;;;16.47;14.30;;;;;;;;;;5053082;28;20409;-52
2021/05/06 07:04:04;;;;;;;17.50;14.60;;;;;;;;;;5052677;28;21032;-52
2021/05/06 07:06:30;;;;;;;16.73;14.23;;;;;;;;;;5052452;28;20845;-52
2021/05/06 07:08:56;;;;;;;16.17;14.33;;;;;;;;;;5052362;28;20456;-52
2021/05/06 07:11:22;;;;;;;19.97;15.87;;;;;;;;;;5052451;28;20427;-52
2021/05/06 07:13:48;;;;;;;17.93;15.20;;;;;;;;;;5052625;28;20832;-53
2021/05/06 07:16:14;;;;;;;15.70;14.13;;;;;;;;;;5052741;28;20397;-52
2021/05/06 07:18:40;;;;;;;16.10;14.40;;;;;;;;;;5052713;28;20772;-53
2021/05/06 07:21:06;;;;;;;15.03;13.33;;;;;;;;;;5053036;28;20795;-53
2021/05/06 07:23:34;;;;;;;14.63;13.03;;;;;;;;;;5053231;28;20400;-52
2021/05/06 07:26:00;;;;;;;19.30;16.20;;;;;;;;;;5052917;28;20408;-53
2021/05/06 07:28:44;;;;;;;14.50;12.57;;;;;;;;;;5052833;28;20471;-52
2021/05/06 07:31:11;;;;;;;18.37;13.37;;;;;;;;;;5052689;28;20451;-53
2021/05/06 07:33:39;;;;;;;18.63;13.30;;;;;;;;;;5052760;28;20420;-53
2021/05/06 07:36:05;;;;;;;14.50;12.83;;;;;;;;;;5052542;28;20768;-53
2021/05/06 07:38:31;;;;;;;14.33;12.50;;;;;;;;;;5052528;28;20428;-53
2021/05/06 07:41:00;;;;;;;16.13;12.80;;;;;;;;;;5052120;28;20487;-52
2021/05/06 07:43:30;;;;;;;13.23;11.93;;;;;;;;;;5052451;28;20997;-53
2021/05/06 07:45:56;;;;;;;18.60;14.70;;;;;;;;;;5052341;28;20801;-52
2021/05/06 07:48:22;;;;;;;15.20;13.70;;;;;;;;;;5073116;22;20534;-59
2021/05/06 07:50:48;;;;;;;17.37;14.27;;;;;;;;;;5091919;28;20417;-60
2021/05/06 07:53:16;;;;;;;17.43;15.57;;;;;;;;;;5092540;28;20889;-60
2021/05/06 07:55:42;;;;;;;17.43;15.53;;;;;;;;;;5092541;28;20392;-60
2021/05/06 07:58:08;;;;;;;23.80;16.67;;;;;;;;;;5092329;28;20881;-60
2021/05/06 08:00:35;;;;;;;18.70;16.57;;;;;;;;;;5092060;28;20437;-58
2021/05/06 08:03:01;;;;;;;19.80;17.77;;;;;;;;;;5092111;28;20405;-58
2021/05/06 08:05:27;;;;;;;21.03;17.40;;;;;;;;;;5092495;28;20415;-58
2021/05/06 08:07:54;;;;;;;20.63;17.27;;;;;;;;;;5091915;28;20483;-58
2021/05/06 08:10:22;;;;;;;21.40;17.23;;;;;;;;;;5091979;28;20403;-59
2021/05/06 08:12:48;;;;;;;20.30;17.77;;;;;;;;;;5092003;28;20395;-58
2021/05/06 08:15:14;;;;;;;21.13;18.93;;;;;;;;;;5092076;28;20456;-59
2021/05/06 08:17:41;;;;;;;21.47;17.17;;;;;;;;;;5091841;28;20418;-60
2021/05/06 08:20:09;;;;;;;18.90;16.90;;;;;;;;;;5091752;28;20501;-60
2021/05/06 08:22:36;;;;;;;17.97;16.10;;;;;;;;;;5091911;28;20514;-60
2021/05/06 08:25:02;;;;;;;19.90;16.40;;;;;;;;;;5091935;28;20883;-60
2021/05/06 08:27:28;;;;;;;21.00;18.73;;;;;;;;;;5091566;28;20584;-60
2021/05/06 08:29:54;;;;;;;17.10;14.33;;;;;;;;;;5091488;28;20494;-60
2021/05/06 08:32:20;;;;;;;17.27;15.50;;;;;;;;;;5091682;28;20931;-60
2021/05/06 08:34:46;;;;;;;20.00;15.67;;;;;;;;;;5091816;28;20396;-58
2021/05/06 08:37:11;;;;;;;17.87;16.07;;;;;;;;;;5091547;28;20882;-58
2021/05/06 08:39:38;;;;;;;19.23;15.17;;;;;;;;;;5091359;28;20448;-60
2021/05/06 08:42:04;;;;;;;17.03;15.23;;;;;;;;;;5091830;28;20486;-60
2021/05/06 08:44:32;;;;;;;18.43;16.53;;;;;;;;;;5091551;28;20398;-60
2021/05/06 08:47:15;;;;;;;18.33;16.47;;;;;;;;;;5091330;28;20942;-60
2021/05/06 08:49:41;;;;;;;17.43;15.63;;;;;;;;;;5091153;28;20843;-60
2021/05/06 08:52:08;;;;;;;21.70;19.40;;;;;;;;;;5091234;28;20399;-60
2021/05/06 08:54:35;;;;;;;19.03;17.00;;;;;;;;;;5090879;28;20788;-60
2021/05/06 08:57:02;;;;;;;17.03;14.90;;;;;;;;;;5091347;28;20879;-60
2021/05/06 08:59:28;;;;;;;17.50;15.60;;;;;;;;;;5091359;28;20422;-60
2021/05/06 09:01:55;;;;;;;16.40;14.63;;;;;;;;;;5096666;28;20510;-60
2021/05/06 09:04:22;;;;;;;15.60;14.07;;;;;;;;;;5087023;28;20435;-60
2021/05/06 09:07:17;;;;;;;17.40;15.57;;;;;;;;;;5070828;28;20546;-60
2021/05/06 09:09:44;;;;;;;15.53;13.47;;;;;;;;;;5057404;28;20441;-60
2021/05/06 09:12:10;;;;;;;16.20;12.47;;;;;;;;;;5070802;28;20402;-57
2021/05/06 09:14:38;;;;;;;12.60;11.40;;;;;;;;;;5070998;28;20404;-59
2021/05/06 09:17:05;;;;;;;12.93;10.50;;;;;;;;;;5071195;28;21022;-57
2021/05/06 09:19:31;;;;;;;10.37;9.50;;;;;;;;;;5070385;28;20486;-58
2021/05/06 09:21:57;;;;;;;9.63;8.63;;;;;;;;;;5070871;28;20890;-58
2021/05/06 09:24:35;;;;;;;10.90;9.77;;;;;;;;;;5070654;28;20899;-57
2021/05/06 09:27:02;;;;;;;9.17;8.40;;;;;;;;;;5070886;28;20451;-57
2021/05/06 09:29:48;;;;;;;9.40;8.50;;;;;;;;;;5070344;28;20482;-58
2021/05/06 09:32:15;;;;;;;9.23;8.53;;;;;;;;;;5070745;28;20752;-57
2021/05/06 09:34:42;;;;;;;8.63;7.93;;;;;;;;;;5070503;28;20405;-58
2021/05/06 09:37:08;;;;;;;8.13;7.50;;;;;;;;;;5070775;28;20399;-57
2021/05/06 09:39:38;;;;;;;8.73;8.03;;;;;;;;;;5068859;28;20428;-57
2021/05/06 09:42:06;;;;;;;9.43;8.53;;;;;;;;;;5070739;28;20850;-57
2021/05/06 09:44:50;;;;;;;8.73;7.93;;;;;;;;;;5070541;28;20401;-59
2021/05/06 09:47:16;;;;;;;7.93;7.00;;;;;;;;;;5070319;28;20422;-58
2021/05/06 09:49:42;;;;;;;7.47;6.77;;;;;;;;;;5069903;28;20425;-58
2021/05/06 09:52:08;;;;;;;8.77;8.07;;;;;;;;;;5068788;28;20391;-58
2021/05/06 09:54:44;;;;;;;7.10;6.60;;;;;;;;;;5070336;28;20887;-58
2021/05/06 09:57:10;;;;;;;6.97;5.87;;;;;;;;;;5070163;28;20894;-58
2021/05/06 09:59:39;;;;;;;6.50;5.90;;;;;;;;;;5068740;28;20442;-58
2021/05/06 10:02:08;;;;;;;7.90;7.20;;;;;;;;;;5070258;28;20374;-57
2021/05/06 10:04:35;;;;;;;8.23;7.50;;;;;;;;;;5070343;28;20409;-58
2021/05/06 10:07:05;;;;;;;6.50;6.00;;;;;;;;;;5073904;28;20452;-58
2021/05/06 10:09:31;;;;;;;5.13;4.70;;;;;;;;;;5073732;28;20422;-57
2021/05/06 10:12:01;;;;;;;7.10;5.00;;;;;;;;;;5074142;28;20408;-58
2021/05/06 10:14:27;;;;;;;4.90;4.60;;;;;;;;;;5073826;28;20399;-58
2021/05/06 10:16:53;;;;;;;5.63;4.40;;;;;;;;;;5074030;28;20403;-58
2021/05/06 10:19:19;;;;;;;5.20;4.80;;;;;;;;;;5073617;28;20424;-58
2021/05/06 10:21:46;;;;;;;4.87;4.57;;;;;;;;;;5074001;28;20406;-58
2021/05/06 10:24:15;;;;;;;4.27;4.07;;;;;;;;;;5073491;28;20461;-58
2021/05/06 10:26:41;;;;;;;5.03;4.73;;;;;;;;;;5073784;28;20490;-58
2021/05/06 10:29:07;;;;;;;4.90;4.50;;;;;;;;;;5073650;28;20409;-57
2021/05/06 10:31:37;;;;;;;4.97;4.57;;;;;;;;;;5073727;28;20397;-57
2021/05/06 10:34:03;;;;;;;7.03;4.77;;;;;;;;;;5073531;28;20950;-57
2021/05/06 10:36:29;;;;;;;5.57;5.17;;;;;;;;;;5073493;28;20392;-57
2021/05/06 10:38:55;;;;;;;6.07;5.37;;;;;;;;;;5073214;28;20481;-57
2021/05/06 10:41:25;;;;;;;5.57;5.07;;;;;;;;;;5073697;28;20781;-58
2021/05/06 10:43:55;;;;;;;6.60;6.00;;;;;;;;;;5073438;28;20911;-58
2021/05/06 10:46:22;;;;;;;4.77;4.47;;;;;;;;;;5073655;28;20439;-58
2021/05/06 10:48:53;;;;;;;4.50;4.20;;;;;;;;;;5073045;28;20438;-58
2021/05/06 10:51:39;;;;;;;4.70;4.30;;;;;;;;;;5073335;28;20409;-57
2021/05/06 10:54:23;;;;;;;4.70;4.40;;;;;;;;;;5073278;28;20367;-58
2021/05/06 10:56:49;;;;;;;5.50;4.37;;;;;;;;;;5073334;28;20412;-58
2021/05/06 10:59:22;;;;;;;4.77;4.37;;;;;;;;;;5072779;28;20478;-58
2021/05/06 11:01:48;;;;;;;4.40;4.07;;;;;;;;;;5073093;28;20886;-58
2021/05/06 11:04:14;;;;;;;6.03;4.57;;;;;;;;;;5073265;28;20425;-58
2021/05/06 11:06:41;;;;;;;4.83;4.43;;;;;;;;;;5073037;28;20407;-57
2021/05/06 11:09:26;;;;;;;6.00;4.57;;;;;;;;;;5072864;28;20413;-57
2021/05/06 11:12:10;;;;;;;5.30;4.90;;;;;;;;;;5072966;28;20446;-58
2021/05/06 11:14:56;;;;;;;3.90;3.60;;;;;;;;;;5073117;28;20374;-58
2021/05/06 11:17:22;;;;;;;4.17;3.73;;;;;;;;;;5072490;28;20408;-58
2021/05/06 11:19:48;;;;;;;5.63;4.07;;;;;;;;;;5072728;28;20836;-58
2021/05/06 11:22:34;;;;;;;4.20;3.90;;;;;;;;;;5072756;28;20416;-58
2021/05/06 11:25:01;;;;;;;4.43;4.03;;;;;;;;;;5072812;28;20387;-58
2021/05/06 11:27:37;;;;;;;4.33;4.03;;;;;;;;;;5072657;28;20433;-58
2021/05/06 11:30:21;;;;;;;3.53;3.30;;;;;;;;;;5072589;28;20419;-58
2021/05/06 11:32:50;;;;;;;3.83;3.27;;;;;;;;;;5072435;28;20466;-58
2021/05/06 11:35:16;;;;;;;3.70;3.30;;;;;;;;;;5073004;28;20393;-58
2021/05/06 11:37:51;;;;;;;3.33;3.03;;;;;;;;;;5072436;28;20428;-58
2021/05/06 11:40:22;;;;;;;4.57;2.90;;;;;;;;;;5072424;28;20388;-58
2021/05/06 11:42:48;;;;;;;3.60;2.90;;;;;;;;;;5072436;28;20408;-58
2021/05/06 11:45:14;;;;;;;2.57;2.43;;;;;;;;;;5071153;28;20503;-58
2021/05/06 11:47:41;;;;;;;3.27;3.07;;;;;;;;;;5072199;28;20451;-58
2021/05/06 11:50:21;;;;;;;2.87;2.67;;;;;;;;;;5071989;28;20896;-58
2021/05/06 11:52:47;;;;;;;4.73;2.97;;;;;;;;;;5072199;28;20374;-58
2021/05/06 11:55:26;;;;;;;3.13;2.93;;;;;;;;;;5072359;28;20403;-58
2021/05/06 11:57:52;;;;;;;3.40;2.87;;;;;;;;;;5072332;28;20379;-58
2021/05/06 12:00:18;;;;;;;3.60;3.17;;;;;;;;;;5071820;28;20428;-58
2021/05/06 12:02:44;;;;;;;3.93;3.13;;;;;;;;;;5071873;28;20483;-58
2021/05/06 12:05:10;;;;;;;2.50;2.30;;;;;;;;;;5072003;28;20796;-58
2021/05/06 12:07:37;;;;;;;2.60;2.40;;;;;;;;;;5071673;28;20956;-58
2021/05/06 12:10:09;;;;;;;4.30;3.00;;;;;;;;;;5071611;28;20420;-58
2021/05/06 12:12:35;;;;;;;2.77;2.50;;;;;;;;;;5071533;28;20419;-57
2021/05/06 12:15:02;;;;;;;2.20;2.10;;;;;;;;;;5071728;28;20428;-57
2021/05/06 12:17:28;;;;;;;2.63;2.43;;;;;;;;;;5071959;28;20407;-58
2021/05/06 12:19:59;;;;;;;2.13;2.00;;;;;;;;;;5071359;28;20420;-58
2021/05/06 12:22:25;;;;;;;2.83;2.20;;;;;;;;;;5072077;28;20401;-58
2021/05/06 12:24:55;;;;;;;2.43;2.30;;;;;;;;;;5071343;28;20378;-58
2021/05/06 12:27:21;;;;;;;3.00;2.77;;;;;;;;;;5071074;28;20431;-58
2021/05/06 12:29:48;;;;;;;3.00;2.63;;;;;;;;;;5070691;28;20426;-58
2021/05/06 12:32:21;;;;;;;2.30;2.13;;;;;;;;;;5071378;28;20914;-58
2021/05/06 12:34:47;;;;;;;2.17;1.97;;;;;;;;;;5071289;28;20403;-58
2021/05/06 12:37:13;;;;;;;2.80;2.60;;;;;;;;;;5071250;28;20397;-58
2021/05/06 12:39:43;;;;;;;2.63;2.43;;;;;;;;;;5070714;28;20498;-58
2021/05/06 12:42:10;;;;;;;2.10;2.00;;;;;;;;;;5071503;28;20745;-58
2021/05/06 12:44:36;;;;;;;2.07;1.70;;;;;;;;;;5071204;28;20404;-58
2021/05/06 12:47:22;;;;;;;2.73;2.43;;;;;;;;;;5071120;28;20486;-58
2021/05/06 12:50:06;;;;;;;1.93;1.77;;;;;;;;;;5070505;28;20838;-58
2021/05/06 12:52:34;;;;;;;3.33;1.60;;;;;;;;;;5071079;28;20407;-58
2021/05/06 12:55:02;;;;;;;2.37;2.17;;;;;;;;;;5071046;28;20392;-59
2021/05/06 12:57:28;;;;;;;3.10;2.40;;;;;;;;;;5071065;28;20817;-58
2021/05/06 12:59:54;;;;;;;3.50;2.17;;;;;;;;;;5070539;28;20416;-58
2021/05/06 13:02:20;;;;;;;6.13;2.30;;;;;;;;;;5070854;28;20420;-58
2021/05/06 13:04:56;;;;;;;3.60;2.30;;;;;;;;;;5070904;28;20750;-58
2021/05/06 13:07:22;;;;;;;2.90;2.13;;;;;;;;;;5070743;28;20452;-58
2021/05/06 13:09:49;;;;;;;2.23;2.13;;;;;;;;;;5070505;28;20505;-58
2021/05/06 13:12:19;;;;;;;2.37;2.17;;;;;;;;;;5087124;28;20415;-58
2021/05/06 13:14:49;;;;;;;2.33;2.10;;;;;;;;;;5090888;28;20440;-59
2021/05/06 13:17:22;;;;;;;2.40;2.20;;;;;;;;;;5088841;28;20813;-58
2021/05/06 13:19:48;;;;;;;4.20;2.67;;;;;;;;;;5089505;28;20888;-58
2021/05/06 13:22:14;;;;;;;6.00;2.20;;;;;;;;;;5090184;28;20487;-58
2021/05/06 13:24:40;;;;;;;2.77;2.30;;;;;;;;;;5090738;28;20414;-58
2021/05/06 13:27:13;;;;;;;3.43;2.40;;;;;;;;;;5090612;28;20962;-58
2021/05/06 13:29:46;;;;;;;3.30;1.73;;;;;;;;;;5090414;28;20415;-58
2021/05/06 13:32:12;;;;;;;2.33;2.13;;;;;;;;;;5090612;28;20403;-58
2021/05/06 13:34:52;;;;;;;2.43;2.33;;;;;;;;;;5090820;28;20375;-57
2021/05/06 13:37:18;;;;;;;2.67;2.17;;;;;;;;;;5090851;28;20681;-58
2021/05/06 13:39:44;;;;;;;2.17;1.93;;;;;;;;;;5093787;28;20502;-57
2021/05/06 13:42:10;;;;;;;3.93;2.27;;;;;;;;;;5096028;28;20753;-58
2021/05/06 13:44:36;;;;;;;2.17;2.07;;;;;;;;;;5097627;28;20696;-58
2021/05/06 13:47:06;;;;;;;3.47;2.50;;;;;;;;;;5097545;28;20964;-57
2021/05/06 13:49:33;;;;;;;9.63;3.07;;;;;;;;;;5102098;22;20533;-51
2021/05/06 13:52:00;;;;;;;2.33;2.10;;;;;;;;;;5057071;28;20412;-54
2021/05/06 13:54:27;;;;;;;2.30;2.10;;;;;;;;;;5056951;28;20404;-51
2021/05/06 13:56:53;;;;;;;2.23;2.03;;;;;;;;;;5057022;28;20389;-52
2021/05/06 13:59:19;;;;;;;2.50;2.30;;;;;;;;;;5056864;28;20417;-51
2021/05/06 14:01:52;;;;;;;3.20;2.20;;;;;;;;;;5057183;28;20389;-52
2021/05/06 14:04:18;;;;;;;2.37;2.17;;;;;;;;;;5057156;28;20372;-51
2021/05/06 14:06:44;;;;;;;2.50;2.40;;;;;;;;;;5057179;28;20368;-52
2021/05/06 14:09:17;;;;;;;4.03;2.30;;;;;;;;;;5056513;28;20379;-51
2021/05/06 14:11:44;;;;;;;3.27;2.50;;;;;;;;;;5057272;28;20408;-51
2021/05/06 14:14:14;;;;;;;3.77;2.47;;;;;;;;;;5056795;28;20745;-51
2021/05/06 14:16:40;;;;;;;2.53;2.20;;;;;;;;;;5056962;28;20376;-52
2021/05/06 14:19:07;;;;;;;2.90;2.70;;;;;;;;;;5056498;28;20859;-51
2021/05/06 14:21:34;;;;;;;4.30;2.27;;;;;;;;;;5056762;28;20388;-53
2021/05/06 14:24:00;;;;;;;2.60;2.30;;;;;;;;;;5056883;28;20371;-52
2021/05/06 14:26:26;;;;;;;3.80;2.17;;;;;;;;;;5056682;28;20951;-52
2021/05/06 14:28:52;;;;;;;5.00;2.43;;;;;;;;;;5056641;28;20521;-53
2021/05/06 14:31:18;;;;;;;3.50;2.60;;;;;;;;;;5056622;28;20490;-52
2021/05/06 14:33:44;;;;;;;2.67;2.47;;;;;;;;;;5056674;28;20372;-53
2021/05/06 14:36:11;;;;;;;4.90;2.47;;;;;;;;;;5056353;28;20950;-51
2021/05/06 14:38:38;;;;;;;4.33;2.30;;;;;;;;;;5056893;28;20743;-50
2021/05/06 14:41:04;;;;;;;3.53;2.20;;;;;;;;;;5056415;28;20767;-51
2021/05/06 14:43:30;;;;;;;2.33;2.13;;;;;;;;;;5056695;28;20409;-50
2021/05/06 14:45:56;;;;;;;1.97;1.87;;;;;;;;;;5056590;28;20468;-51
2021/05/06 14:48:22;;;;;;;2.50;2.30;;;;;;;;;;5056535;28;20480;-54
2021/05/06 14:50:48;;;;;;;2.57;2.37;;;;;;;;;;5054061;28;20445;-53
2021/05/06 14:53:15;;;;;;;2.80;2.30;;;;;;;;;;5053481;28;20862;-51
2021/05/06 14:55:41;;;;;;;2.53;2.33;;;;;;;;;;5053241;28;20856;-50
2021/05/06 14:58:07;;;;;;;3.27;2.53;;;;;;;;;;5053297;28;20387;-50
2021/05/06 15:00:33;;;;;;;2.93;2.40;;;;;;;;;;5052893;28;20892;-50
2021/05/06 15:03:00;;;;;;;3.17;2.50;;;;;;;;;;5053552;28;20421;-50
2021/05/06 15:05:26;;;;;;;3.33;2.50;;;;;;;;;;5053243;28;20490;-53
2021/05/06 15:07:52;;;;;;;5.30;2.23;;;;;;;;;;5056896;28;20439;-53
2021/05/06 15:10:18;;;;;;;4.30;2.40;;;;;;;;;;5053004;28;20433;-53
2021/05/06 15:12:46;;;;;;;4.13;2.77;;;;;;;;;;5051840;28;20412;-51
2021/05/06 15:15:12;;;;;;;2.63;2.23;;;;;;;;;;5052875;28;20376;-50
2021/05/06 15:17:38;;;;;;;3.13;2.60;;;;;;;;;;5052744;28;20405;-53
2021/05/06 15:20:05;;;;;;;2.90;2.20;;;;;;;;;;5052310;28;20422;-52
2021/05/06 15:22:31;;;;;;;5.40;2.50;;;;;;;;;;5052192;28;20415;-52
2021/05/06 15:24:57;;;;;;;5.63;4.60;;;;;;;;;;5052632;28;20428;-53
2021/05/06 15:27:23;;;;;;;2.57;2.30;;;;;;;;;;5052703;28;20449;-54
2021/05/06 15:29:49;;;;;;;5.23;3.33;;;;;;;;;;5052390;28;20435;-54
2021/05/06 15:32:15;;;;;;;4.10;2.90;;;;;;;;;;5052752;28;20375;-55
2021/05/06 15:34:41;;;;;;;5.57;2.53;;;;;;;;;;5052646;28;20440;-53
2021/05/06 15:37:08;;;;;;;2.27;2.07;;;;;;;;;;5052668;28;20436;-54
2021/05/06 15:39:34;;;;;;;3.10;2.60;;;;;;;;;;5051939;28;20487;-50
2021/05/06 15:42:00;;;;;;;3.57;2.27;;;;;;;;;;5052232;28;20386;-50
2021/05/06 15:44:26;;;;;;;2.50;2.30;;;;;;;;;;5052812;28;20408;-50
2021/05/06 15:46:58;;;;;;;2.90;2.40;;;;;;;;;;5052452;28;20405;-51
2021/05/06 15:49:24;;;;;;;3.77;2.70;;;;;;;;;;5052197;28;20429;-52
2021/05/06 15:51:50;;;;;;;2.80;2.60;;;;;;;;;;5052466;28;20380;-52
2021/05/06 15:54:16;;;;;;;3.10;2.80;;;;;;;;;;5051003;28;20421;-50
2021/05/06 15:56:43;;;;;;;3.20;2.80;;;;;;;;;;5052496;28;20487;-52
2021/05/06 15:59:09;;;;;;;3.20;2.80;;;;;;;;;;5052246;28;20795;-51
2021/05/06 16:01:35;;;;;;;2.80;2.50;;;;;;;;;;5052783;28;20740;-50
2021/05/06 16:04:04;;;;;;;2.67;2.47;;;;;;;;;;5051631;28;20401;-50
2021/05/06 16:06:30;;;;;;;4.60;2.70;;;;;;;;;;5052376;28;20491;-50
2021/05/06 16:08:56;;;;;;;3.23;2.93;;;;;;;;;;5051967;28;20449;-50
2021/05/06 16:11:22;;;;;;;4.27;2.73;;;;;;;;;;5051943;28;20495;-52
2021/05/06 16:13:48;;;;;;;3.23;2.60;;;;;;;;;;5052086;28;20390;-51
2021/05/06 16:16:14;;;;;;;2.40;2.20;;;;;;;;;;5051780;28;20400;-52
2021/05/06 16:18:45;;;;;;;2.40;2.03;;;;;;;;;;5051597;28;20968;-53
2021/05/06 16:21:12;;;;;;;2.70;2.50;;;;;;;;;;5051824;28;20427;-50
2021/05/06 16:23:39;;;;;;;3.53;2.80;;;;;;;;;;5051864;28;20760;-50
2021/05/06 16:26:06;;;;;;;2.70;2.50;;;;;;;;;;5051779;28;20853;-53
2021/05/06 16:28:31;;;;;;;2.60;2.50;;;;;;;;;;5051696;28;20457;-51
2021/05/06 16:30:58;;;;;;;2.50;2.40;;;;;;;;;;5051309;28;20432;-50
2021/05/06 16:33:24;;;;;;;3.00;2.70;;;;;;;;;;5051807;28;20405;-50
2021/05/06 16:35:58;;;;;;;3.20;2.90;;;;;;;;;;5051525;28;20423;-53
2021/05/06 16:38:25;;;;;;;3.97;3.07;;;;;;;;;;5052035;28;20406;-50
2021/05/06 16:40:55;;;;;;;3.93;2.93;;;;;;;;;;5051082;28;20427;-51
2021/05/06 16:43:34;;;;;;;3.50;3.30;;;;;;;;;;5051208;28;20412;-50
2021/05/06 16:46:00;;;;;;;4.43;3.27;;;;;;;;;;5051433;28;20804;-53
2021/05/06 16:48:26;;;;;;;3.17;2.90;;;;;;;;;;5051363;28;20552;-52
2021/05/06 16:50:52;;;;;;;3.50;3.20;;;;;;;;;;5050821;28;20868;-52
2021/05/06 16:53:18;;;;;;;3.60;3.40;;;;;;;;;;5051077;28;20420;-53
2021/05/06 16:55:45;;;;;;;3.73;3.43;;;;;;;;;;5050979;28;20881;-53
2021/05/06 16:58:11;;;;;;;7.13;3.67;;;;;;;;;;5050983;28;20405;-50
2021/05/06 17:00:38;;;;;;;5.23;3.83;;;;;;;;;;5050769;28;20904;-50
2021/05/06 17:03:05;;;;;;;3.63;3.30;;;;;;;;;;5050935;28;20402;-51
2021/05/06 17:05:31;;;;;;;3.20;3.00;;;;;;;;;;5051033;28;20904;-49
2021/05/06 17:07:57;;;;;;;3.60;3.40;;;;;;;;;;5050773;28;20479;-52
2021/05/06 17:10:24;;;;;;;4.90;3.47;;;;;;;;;;5050500;28;20425;-50
2021/05/06 17:12:50;;;;;;;5.00;3.17;;;;;;;;;;5050983;28;20414;-53
2021/05/06 17:15:17;;;;;;;3.90;3.60;;;;;;;;;;5050693;28;20893;-52
2021/05/06 17:17:43;;;;;;;3.67;3.37;;;;;;;;;;5050695;28;20431;-51
2021/05/06 17:20:09;;;;;;;3.90;3.50;;;;;;;;;;5050513;28;20430;-50
2021/05/06 17:22:41;;;;;;;4.20;3.90;;;;;;;;;;5050617;28;20437;-52
2021/05/06 17:25:08;;;;;;;3.73;3.50;;;;;;;;;;5051005;28;20464;-53
2021/05/06 17:27:33;;;;;;;8.10;3.37;;;;;;;;;;5050696;28;20531;-51
2021/05/06 17:30:00;;;;;;;3.60;3.30;;;;;;;;;;5050299;28;20426;-51
2021/05/06 17:32:28;;;;;;;3.60;3.30;;;;;;;;;;5050626;28;20769;-54
2021/05/06 17:34:54;;;;;;;3.67;3.30;;;;;;;;;;5050519;28;20402;-51
2021/05/06 17:37:20;;;;;;;4.10;3.10;;;;;;;;;;5050504;28;20421;-53
2021/05/06 17:39:46;;;;;;;3.37;2.70;;;;;;;;;;5050128;28;20429;-52